Time;durP1;ratioP1;P1;durP2;ratioP2;P2;SDS_P1;SDS_P2;PMS_P1;PMS_P2;Temp;Humidity;BMP_temperature;BMP_pressure;BME280_temperature;BME280_humidity;BME280_pressure;Samples;Min_cycle;Max_cycle;Signal;HPM_P1;HPM_P2
2022/08/28 00:01:24;;;;;;;;;;;19.20;99.90;;;;;;5052776;28;19920;-53
2022/08/28 00:04:10;;;;;;;;;;;19.10;99.90;;;;;;5053395;28;19913;-53
2022/08/28 00:06:56;;;;;;;;;;;19.10;99.90;;;;;;5055505;28;19999;-54
2022/08/28 00:09:43;;;;;;;;;;;19.20;99.90;;;;;;5053589;28;19913;-56
2022/08/28 00:12:30;;;;;;;;;;;19.20;99.90;;;;;;5053094;28;20067;-50
2022/08/28 00:15:18;;;;;;;;;;;19.20;99.90;;;;;;5052667;28;20008;-50
2022/08/28 00:18:05;;;;;;;;;;;19.20;99.90;;;;;;5054189;28;19988;-52
2022/08/28 00:20:51;;;;;;;;;;;19.20;99.90;;;;;;5053256;28;19960;-55
2022/08/28 00:23:37;;;;;;;;;;;19.00;99.90;;;;;;5052893;28;20339;-50
2022/08/28 00:29:28;;;;;;;;;;;19.00;99.90;;;;;;5053409;28;19968;-52
2022/08/28 00:32:14;;;;;;;;;;;19.00;99.90;;;;;;5053739;28;19909;-54
2022/08/28 00:35:03;;;;;;;;;;;19.00;99.90;;;;;;5035228;28;19937;-53
2022/08/28 00:37:49;;;;;;;;;;;18.90;99.90;;;;;;5037454;28;19928;-52
2022/08/28 00:40:35;;;;;;;;;;;19.00;99.90;;;;;;5052784;28;19915;-50
2022/08/28 00:43:35;;;;;;;;;;;18.90;99.90;;;;;;5044998;28;19913;-51
2022/08/28 00:46:22;;;;;;;;;;;18.80;99.90;;;;;;5042418;28;19953;-52
2022/08/28 00:49:08;;;;;;;;;;;18.90;99.90;;;;;;5045959;28;19916;-53
2022/08/28 00:52:04;;;;;;;;;;;18.90;99.90;;;;;;5056030;28;19917;-48
2022/08/28 00:54:52;;;;;;;;;;;18.90;99.90;;;;;;5044942;28;19923;-47
2022/08/28 00:57:43;;;;;;;;;;;18.70;99.90;;;;;;5052899;28;19916;-49
2022/08/28 01:00:32;;;;;;;;;;;18.80;99.90;;;;;;5050593;28;19967;-48
2022/08/28 01:02:58;;;;;;;;;;;18.80;99.90;;;;;;5053716;28;19917;-54
2022/08/28 01:05:24;;;;;;;;;;;18.80;99.90;;;;;;5053610;28;20007;-49
2022/08/28 01:07:51;;;;;;;;;;;18.80;99.90;;;;;;5052613;28;19963;-53
2022/08/28 01:10:19;;;;;;;;;;;18.80;99.90;;;;;;5048954;28;20357;-49
2022/08/28 01:12:45;;;;;;;;;;;18.70;99.90;;;;;;5053641;28;19940;-50
2022/08/28 01:15:13;;;;;;;;;;;18.70;99.90;;;;;;5052184;28;19913;-49
2022/08/28 01:17:40;;;;;;;;;;;18.70;99.90;;;;;;5053231;28;19968;-52
2022/08/28 01:20:08;;;;;;;;;;;18.60;99.90;;;;;;5054204;28;20454;-52
2022/08/28 01:22:37;;;;;;;;;;;18.50;99.90;;;;;;5053009;28;19920;-52
2022/08/28 01:25:07;;;;;;;;;;;18.50;99.90;;;;;;5054333;28;20365;-52
2022/08/28 01:27:33;;;;;;;;;;;18.50;99.90;;;;;;5052452;28;19952;-49
2022/08/28 01:29:59;;;;;;;;;;;18.50;99.90;;;;;;5053824;28;19916;-50
2022/08/28 01:32:26;;;;;;;;;;;18.60;99.90;;;;;;5052321;28;19921;-52
2022/08/28 01:34:51;;;;;;;;;;;18.50;99.90;;;;;;5053514;28;19962;-51
2022/08/28 01:37:17;;;;;;;;;;;18.50;99.90;;;;;;5054014;28;19925;-50
2022/08/28 01:39:42;;;;;;;;;;;18.50;99.90;;;;;;5053174;28;19917;-54
2022/08/28 01:42:08;;;;;;;;;;;18.40;99.90;;;;;;5052865;28;19929;-53
2022/08/28 01:44:33;;;;;;;;;;;18.30;99.90;;;;;;5052772;28;19917;-49
2022/08/28 01:46:59;;;;;;;;;;;18.30;99.90;;;;;;5048892;28;20384;-52
2022/08/28 01:49:28;;;;;;;;;;;18.10;99.90;;;;;;5053239;28;19913;-54
2022/08/28 01:51:54;;;;;;;;;;;18.10;99.90;;;;;;5052521;28;19912;-48
2022/08/28 01:54:19;;;;;;;;;;;18.10;99.90;;;;;;5052645;28;19920;-51
2022/08/28 01:56:46;;;;;;;;;;;18.10;99.90;;;;;;5051626;28;19913;-53
2022/08/28 01:59:13;;;;;;;;;;;18.10;99.90;;;;;;5053078;28;19956;-53
2022/08/28 02:01:39;;;;;;;;;;;18.20;99.90;;;;;;5052858;28;19913;-49
2022/08/28 02:04:04;;;;;;;;;;;18.10;99.90;;;;;;5051935;28;19940;-50
2022/08/28 02:06:30;;;;;;;;;;;18.20;99.90;;;;;;5052852;28;19956;-51
2022/08/28 02:08:56;;;;;;;;;;;18.10;99.90;;;;;;5052223;28;20447;-51
2022/08/28 02:11:24;;;;;;;;;;;18.00;99.90;;;;;;5053370;28;19913;-52
2022/08/28 02:13:50;;;;;;;;;;;18.00;99.90;;;;;;5053198;28;19967;-49
2022/08/28 02:16:16;;;;;;;;;;;17.90;99.90;;;;;;5053050;28;19908;-50
2022/08/28 02:18:42;;;;;;;;;;;17.90;99.90;;;;;;5052752;28;19912;-52
2022/08/28 02:21:08;;;;;;;;;;;17.80;99.90;;;;;;5052952;28;19979;-48
2022/08/28 02:23:34;;;;;;;;;;;17.80;99.90;;;;;;5053239;28;19913;-50
2022/08/28 02:26:00;;;;;;;;;;;17.70;99.90;;;;;;5052209;28;20403;-54
2022/08/28 02:28:26;;;;;;;;;;;17.80;99.90;;;;;;5052539;28;19913;-48
2022/08/28 02:30:52;;;;;;;;;;;17.80;99.90;;;;;;5052739;28;19912;-48
2022/08/28 02:33:17;;;;;;;;;;;17.80;99.90;;;;;;5052514;28;19917;-49
2022/08/28 02:35:43;;;;;;;;;;;17.70;99.90;;;;;;5052625;28;20001;-48
2022/08/28 02:38:09;;;;;;;;;;;17.70;99.90;;;;;;5052077;28;19923;-55
2022/08/28 02:40:35;;;;;;;;;;;17.70;99.90;;;;;;5052422;28;19909;-54
2022/08/28 02:43:02;;;;;;;;;;;17.80;99.90;;;;;;5052431;28;19916;-51
2022/08/28 02:45:27;;;;;;;;;;;17.70;99.90;;;;;;5052207;28;19923;-51
2022/08/28 02:47:55;;;;;;;;;;;17.60;99.90;;;;;;5047041;28;19913;-50
2022/08/28 02:50:22;;;;;;;;;;;17.50;99.90;;;;;;5052101;28;19913;-56
2022/08/28 02:52:48;;;;;;;;;;;17.60;99.90;;;;;;5052292;28;19913;-52
2022/08/28 02:55:16;;;;;;;;;;;17.50;99.90;;;;;;5050990;28;19909;-50
2022/08/28 02:57:41;;;;;;;;;;;17.30;99.90;;;;;;5052279;28;19912;-53
2022/08/28 03:00:10;;;;;;;;;;;17.40;99.90;;;;;;5052214;28;19909;-54
2022/08/28 03:02:36;;;;;;;;;;;17.30;99.90;;;;;;5051737;28;20468;-52
2022/08/28 03:05:02;;;;;;;;;;;17.50;99.90;;;;;;5052660;28;19940;-51
2022/08/28 03:07:28;;;;;;;;;;;17.40;99.90;;;;;;5052202;28;19913;-49
2022/08/28 03:09:54;;;;;;;;;;;17.40;99.90;;;;;;5051812;28;19912;-52
2022/08/28 03:12:22;;;;;;;;;;;17.30;99.90;;;;;;5051788;28;19909;-50
2022/08/28 03:14:49;;;;;;;;;;;17.30;99.90;;;;;;5052249;28;19916;-50
2022/08/28 03:17:14;;;;;;;;;;;17.30;99.90;;;;;;5052745;28;19994;-54
2022/08/28 03:19:40;;;;;;;;;;;17.30;99.90;;;;;;5052127;28;20381;-55
2022/08/28 03:22:05;;;;;;;;;;;17.30;99.90;;;;;;5051245;28;19913;-51
2022/08/28 03:24:32;;;;;;;;;;;17.20;99.90;;;;;;5050947;28;19924;-51
2022/08/28 03:27:00;;;;;;;;;;;17.20;99.90;;;;;;5048791;28;20456;-52
2022/08/28 03:29:26;;;;;;;;;;;17.20;99.90;;;;;;5049945;28;19916;-52
2022/08/28 03:31:52;;;;;;;;;;;17.00;99.90;;;;;;5051285;28;19913;-49
2022/08/28 03:34:17;;;;;;;;;;;17.10;99.90;;;;;;5051335;28;19923;-49
2022/08/28 03:36:43;;;;;;;;;;;17.10;99.90;;;;;;5051724;28;19955;-50
2022/08/28 03:39:09;;;;;;;;;;;16.90;99.90;;;;;;5050979;28;19917;-50
2022/08/28 03:41:34;;;;;;;;;;;16.80;99.90;;;;;;5050953;28;20384;-50
2022/08/28 03:44:00;;;;;;;;;;;16.70;99.90;;;;;;5051420;28;19921;-53
2022/08/28 03:46:27;;;;;;;;;;;16.80;99.90;;;;;;5048214;28;20394;-53
2022/08/28 03:48:53;;;;;;;;;;;16.70;99.90;;;;;;5050973;28;19913;-55
2022/08/28 03:51:21;;;;;;;;;;;16.50;99.90;;;;;;5053498;28;19909;-52
2022/08/28 03:53:47;;;;;;;;;;;16.60;99.90;;;;;;5047287;28;19918;-48
2022/08/28 03:56:14;;;;;;;;;;;16.60;99.90;;;;;;5035577;28;19913;-49
2022/08/28 03:58:40;;;;;;;;;;;16.60;99.90;;;;;;5046572;28;19948;-48
2022/08/28 04:01:06;;;;;;;;;;;16.70;99.90;;;;;;5054259;28;19951;-51
2022/08/28 04:03:32;;;;;;;;;;;16.70;99.90;;;;;;5054634;28;19964;-53
2022/08/28 04:05:57;;;;;;;;;;;16.80;99.90;;;;;;5055383;28;19992;-51
2022/08/28 04:08:23;;;;;;;;;;;16.80;99.90;;;;;;5054490;28;19923;-50
2022/08/28 04:10:49;;;;;;;;;;;16.90;99.90;;;;;;5054945;28;19913;-54
2022/08/28 04:13:16;;;;;;;;;;;16.80;99.90;;;;;;5055208;28;20361;-51
2022/08/28 04:15:41;;;;;;;;;;;16.80;99.90;;;;;;5054938;28;19956;-56
2022/08/28 04:18:08;;;;;;;;;;;16.60;99.90;;;;;;5054280;28;19959;-53
2022/08/28 04:20:33;;;;;;;;;;;16.60;99.90;;;;;;5055036;28;19909;-52
2022/08/28 04:23:02;;;;;;;;;;;16.70;99.90;;;;;;5054397;28;19917;-51
2022/08/28 04:25:28;;;;;;;;;;;16.60;99.90;;;;;;5054235;28;20273;-52
2022/08/28 04:27:54;;;;;;;;;;;16.50;99.90;;;;;;5054361;28;20050;-52
2022/08/28 04:30:19;;;;;;;;;;;16.50;99.90;;;;;;5054139;28;19912;-49
2022/08/28 04:32:45;;;;;;;;;;;16.50;99.90;;;;;;5054284;28;20465;-51
2022/08/28 04:35:11;;;;;;;;;;;16.60;99.90;;;;;;5053024;28;20491;-51
2022/08/28 04:37:37;;;;;;;;;;;16.60;99.90;;;;;;5052243;28;19921;-53
2022/08/28 04:40:04;;;;;;;;;;;16.60;99.90;;;;;;5052325;28;19935;-52
2022/08/28 04:42:30;;;;;;;;;;;16.60;99.90;;;;;;5051060;28;20400;-51
2022/08/28 04:44:59;;;;;;;;;;;16.50;99.90;;;;;;5052664;28;19921;-50
2022/08/28 04:47:25;;;;;;;;;;;16.60;99.90;;;;;;5052203;28;20308;-53
2022/08/28 04:49:50;;;;;;;;;;;16.50;99.90;;;;;;5054406;28;19999;-49
2022/08/28 04:52:16;;;;;;;;;;;16.50;99.90;;;;;;5053724;28;20322;-54
2022/08/28 04:54:42;;;;;;;;;;;16.50;99.90;;;;;;5054767;28;20355;-52
2022/08/28 04:57:07;;;;;;;;;;;16.40;99.90;;;;;;5054436;28;20381;-53
2022/08/28 04:59:33;;;;;;;;;;;16.50;99.90;;;;;;5054083;28;19917;-51
2022/08/28 05:01:59;;;;;;;;;;;16.40;99.90;;;;;;5053908;28;19963;-53
2022/08/28 05:04:25;;;;;;;;;;;16.50;99.90;;;;;;5054585;28;19966;-52
2022/08/28 05:06:51;;;;;;;;;;;16.60;99.90;;;;;;5054044;28;20007;-51
2022/08/28 05:09:18;;;;;;;;;;;16.50;99.90;;;;;;5054063;28;19929;-54
2022/08/28 05:11:44;;;;;;;;;;;16.40;99.90;;;;;;5052977;28;19920;-54
2022/08/28 05:14:10;;;;;;;;;;;16.30;99.90;;;;;;5054409;28;20007;-54
2022/08/28 05:16:41;;;;;;;;;;;16.50;99.90;;;;;;5054479;28;20392;-53
2022/08/28 05:19:06;;;;;;;;;;;16.50;99.90;;;;;;5054192;28;20280;-55
2022/08/28 05:21:32;;;;;;;;;;;16.50;99.90;;;;;;5052682;28;20008;-50
2022/08/28 05:23:57;;;;;;;;;;;16.50;99.90;;;;;;5053004;28;19917;-52
2022/08/28 05:26:23;;;;;;;;;;;16.50;99.90;;;;;;5053943;28;20023;-54
2022/08/28 05:28:49;;;;;;;;;;;16.60;99.90;;;;;;5052201;28;20004;-51
2022/08/28 05:31:16;;;;;;;;;;;16.50;99.90;;;;;;5053160;28;19913;-51
2022/08/28 05:33:42;;;;;;;;;;;16.50;99.90;;;;;;5053820;28;19913;-54
2022/08/28 05:36:07;;;;;;;;;;;16.60;99.90;;;;;;5054167;28;19920;-52
2022/08/28 05:38:33;;;;;;;;;;;16.70;99.90;;;;;;5053249;28;20474;-53
2022/08/28 05:40:59;;;;;;;;;;;16.60;99.90;;;;;;5053203;28;19913;-52
2022/08/28 05:43:25;;;;;;;;;;;16.60;99.90;;;;;;5053185;28;19913;-50
2022/08/28 05:45:56;;;;;;;;;;;16.60;99.90;;;;;;5053350;28;19982;-50
2022/08/28 05:48:22;;;;;;;;;;;16.60;99.90;;;;;;5033580;28;19913;-53
2022/08/28 05:50:47;;;;;;;;;;;16.50;99.90;;;;;;5053356;28;19919;-51
2022/08/28 05:53:13;;;;;;;;;;;16.50;99.90;;;;;;5035019;28;20324;-54
2022/08/28 05:55:39;;;;;;;;;;;16.50;99.90;;;;;;5052271;28;19919;-53
2022/08/28 05:58:27;;;;;;;;;;;16.40;99.90;;;;;;5051375;28;20482;-56
2022/08/28 06:00:50;;;;;;;;;;;16.50;99.90;;;;;;5049435;28;19960;-54
2022/08/28 06:03:16;;;;;;;;;;;16.50;99.90;;;;;;5052004;28;19944;-54
2022/08/28 06:05:41;;;;;;;;;;;16.50;99.90;;;;;;5051676;28;19949;-52
2022/08/28 06:08:07;;;;;;;;;;;16.60;99.90;;;;;;5051237;28;19921;-53
2022/08/28 06:10:35;;;;;;;;;;;16.50;99.90;;;;;;5051167;28;19913;-53
2022/08/28 06:13:01;;;;;;;;;;;16.40;99.90;;;;;;5052427;28;20392;-56
2022/08/28 06:15:27;;;;;;;;;;;16.40;99.90;;;;;;5051466;28;19921;-55
2022/08/28 06:17:52;;;;;;;;;;;16.40;99.90;;;;;;5051764;28;19982;-54
2022/08/28 06:20:18;;;;;;;;;;;16.50;99.90;;;;;;5050553;28;19936;-56
2022/08/28 06:22:43;;;;;;;;;;;16.50;99.90;;;;;;5052547;28;19916;-52
2022/08/28 06:25:12;;;;;;;;;;;16.50;99.90;;;;;;5052639;28;20012;-57
2022/08/28 06:27:38;;;;;;;;;;;16.70;99.90;;;;;;5043802;28;20000;-55
2022/08/28 06:30:04;;;;;;;;;;;16.70;99.90;;;;;;5051977;28;19971;-53
2022/08/28 06:32:30;;;;;;;;;;;16.60;99.90;;;;;;5051098;28;19913;-56
2022/08/28 06:34:55;;;;;;;;;;;16.80;99.90;;;;;;5052572;28;19951;-54
2022/08/28 06:37:21;;;;;;;;;;;16.90;99.90;;;;;;5051580;28;19999;-56
2022/08/28 06:39:46;;;;;;;;;;;16.90;99.90;;;;;;5050853;28;19994;-52
2022/08/28 06:42:12;;;;;;;;;;;16.80;99.90;;;;;;5051971;28;19960;-52
2022/08/28 06:44:38;;;;;;;;;;;16.90;99.90;;;;;;5052767;28;20011;-54
2022/08/28 06:47:03;;;;;;;;;;;17.00;99.90;;;;;;5047875;28;19968;-54
2022/08/28 06:49:29;;;;;;;;;;;16.80;99.90;;;;;;5051885;28;20445;-58
2022/08/28 06:51:55;;;;;;;;;;;16.70;99.90;;;;;;5052515;28;19920;-54
2022/08/28 06:54:21;;;;;;;;;;;16.70;99.90;;;;;;5052354;28;19975;-56
2022/08/28 06:56:47;;;;;;;;;;;16.90;99.90;;;;;;5051623;28;19920;-54
2022/08/28 06:59:12;;;;;;;;;;;17.00;99.90;;;;;;5050452;28;19917;-54
2022/08/28 07:01:38;;;;;;;;;;;17.00;99.90;;;;;;5051037;28;19920;-54
2022/08/28 07:04:06;;;;;;;;;;;17.00;99.90;;;;;;5055010;28;20016;-53
2022/08/28 07:06:33;;;;;;;;;;;17.00;99.90;;;;;;5052767;28;20051;-52
2022/08/28 07:08:59;;;;;;;;;;;16.90;99.90;;;;;;5051569;28;19912;-54
2022/08/28 07:11:27;;;;;;;;;;;16.90;99.90;;;;;;5052524;28;19908;-53
2022/08/28 07:13:54;;;;;;;;;;;17.00;99.90;;;;;;5044737;28;20361;-51
2022/08/28 07:16:20;;;;;;;;;;;16.90;99.90;;;;;;5047152;28;19912;-51
2022/08/28 07:18:46;;;;;;;;;;;16.80;99.90;;;;;;5050701;28;20411;-48
2022/08/28 07:21:12;;;;;;;;;;;16.80;99.90;;;;;;5051561;28;19917;-53
2022/08/28 07:23:39;;;;;;;;;;;16.80;99.90;;;;;;5048531;28;19928;-52
2022/08/28 07:26:06;;;;;;;;;;;17.00;99.90;;;;;;5052578;28;19909;-52
2022/08/28 07:28:32;;;;;;;;;;;17.20;99.90;;;;;;5055757;28;19913;-50
2022/08/28 07:31:02;;;;;;;;;;;17.40;99.90;;;;;;5050590;28;20372;-48
2022/08/28 07:33:29;;;;;;;;;;;17.50;99.90;;;;;;5056172;28;19913;-52
2022/08/28 07:35:55;;;;;;;;;;;17.60;99.90;;;;;;5053113;28;19913;-51
2022/08/28 07:38:21;;;;;;;;;;;17.90;99.90;;;;;;5062430;28;19921;-50
2022/08/28 07:40:53;;;;;;;;;;;17.80;99.90;;;;;;5058255;28;20279;-54
2022/08/28 07:46:07;;;;;;;;;;;17.80;99.90;;;;;;5063161;28;19925;-52
2022/08/28 07:48:34;;;;;;;;;;;18.10;99.90;;;;;;5048189;28;19916;-51
2022/08/28 07:51:00;;;;;;;;;;;18.00;99.90;;;;;;5063514;28;19996;-53
2022/08/28 07:53:26;;;;;;;;;;;18.10;99.90;;;;;;5063692;28;19925;-53
2022/08/28 07:55:51;;;;;;;;;;;18.20;99.90;;;;;;5054610;28;19924;-52
2022/08/28 07:58:18;;;;;;;;;;;18.10;99.90;;;;;;5054500;28;19928;-52
2022/08/28 08:00:44;;;;;;;;;;;18.00;99.90;;;;;;5055165;28;19968;-53
2022/08/28 08:03:10;;;;;;;;;;;18.10;99.90;;;;;;5046161;28;20361;-50
2022/08/28 08:05:36;;;;;;;;;;;18.40;99.90;;;;;;5052012;28;20499;-48
2022/08/28 08:08:02;;;;;;;;;;;18.60;99.90;;;;;;5055314;28;20023;-50
2022/08/28 08:10:27;;;;;;;;;;;18.50;99.80;;;;;;5050294;28;20015;-48
2022/08/28 08:12:53;;;;;;;;;;;18.20;99.90;;;;;;5050498;28;20311;-52
2022/08/28 08:15:18;;;;;;;;;;;18.20;99.90;;;;;;5055244;28;19924;-54
2022/08/28 08:17:44;;;;;;;;;;;18.40;99.90;;;;;;5054562;28;19919;-51
2022/08/28 08:20:10;;;;;;;;;;;18.40;99.90;;;;;;5050243;28;19921;-49
2022/08/28 08:22:36;;;;;;;;;;;18.50;99.90;;;;;;5054960;28;20368;-52
2022/08/28 08:25:03;;;;;;;;;;;18.40;99.90;;;;;;5054605;28;19917;-51
2022/08/28 08:27:30;;;;;;;;;;;18.60;99.70;;;;;;5055321;28;20011;-53
2022/08/28 08:29:56;;;;;;;;;;;18.70;99.60;;;;;;5055170;28;19912;-53
2022/08/28 08:32:22;;;;;;;;;;;18.90;98.90;;;;;;5055247;28;20416;-53
2022/08/28 08:34:50;;;;;;;;;;;18.80;98.90;;;;;;5054138;28;20371;-50
2022/08/28 08:37:16;;;;;;;;;;;18.80;99.10;;;;;;5054531;28;20003;-48
2022/08/28 08:39:42;;;;;;;;;;;18.90;98.40;;;;;;5054841;28;19959;-52
2022/08/28 08:42:20;;;;;;;;;;;19.00;98.40;;;;;;5035806;28;19914;-53
2022/08/28 08:44:46;;;;;;;;;;;19.10;98.10;;;;;;5047183;28;20381;-53
2022/08/28 08:47:24;;;;;;;;;;;19.10;97.10;;;;;;5053418;28;19913;-50
2022/08/28 08:49:57;;;;;;;;;;;19.00;97.50;;;;;;5054374;28;20376;-52
2022/08/28 08:52:34;;;;;;;;;;;19.20;97.30;;;;;;5052275;28;20373;-54
2022/08/28 08:55:04;;;;;;;;;;;19.20;97.10;;;;;;5053246;28;19909;-50
2022/08/28 08:57:31;;;;;;;;;;;19.20;97.30;;;;;;5053889;28;19917;-54
2022/08/28 08:59:56;;;;;;;;;;;19.30;97.30;;;;;;5053155;28;19908;-51
2022/08/28 09:02:26;;;;;;;;;;;19.50;96.60;;;;;;5053293;28;20392;-51
2022/08/28 09:04:58;;;;;;;;;;;19.50;96.50;;;;;;5054263;28;19962;-50
2022/08/28 09:07:27;;;;;;;;;;;19.50;96.30;;;;;;5053845;28;19917;-54
2022/08/28 09:09:54;;;;;;;;;;;19.40;96.40;;;;;;5053963;28;19912;-50
2022/08/28 09:12:24;;;;;;;;;;;19.30;96.70;;;;;;5054092;28;20395;-52
2022/08/28 09:15:11;;;;;;;;;;;19.30;96.70;;;;;;5053772;28;20027;-51
2022/08/28 09:17:43;;;;;;;;;;;19.60;96.40;;;;;;5053785;28;19995;-53
2022/08/28 09:20:12;;;;;;;;;;;19.80;95.80;;;;;;5052914;28;19917;-50
2022/08/28 09:22:41;;;;;;;;;;;19.90;95.60;;;;;;5053462;28;20333;-52
2022/08/28 09:25:08;;;;;;;;;;;19.80;95.60;;;;;;5052839;28;19909;-53
2022/08/28 09:27:34;;;;;;;;;;;19.80;95.30;;;;;;5054274;28;19921;-51
2022/08/28 09:30:00;;;;;;;;;;;19.90;95.30;;;;;;5053995;28;20043;-54
2022/08/28 09:32:29;;;;;;;;;;;20.00;95.20;;;;;;5053593;28;19931;-52
2022/08/28 09:35:25;;;;;;;;;;;20.00;95.00;;;;;;5053810;28;19909;-53
2022/08/28 09:37:51;;;;;;;;;;;20.00;94.80;;;;;;5030470;28;19924;-53
2022/08/28 09:40:17;;;;;;;;;;;19.90;95.00;;;;;;5051197;28;19913;-53
2022/08/28 09:46:05;;;;;;;;;;;20.00;94.80;;;;;;5039806;28;19924;-53
2022/08/28 09:48:42;;;;;;;;;;;20.00;94.60;;;;;;5049672;28;21623;-50
2022/08/28 09:51:07;;;;;;;;;;;20.10;94.40;;;;;;5054082;28;19924;-50
2022/08/28 09:53:40;;;;;;;;;;;20.10;94.40;;;;;;5052698;28;19909;-52
2022/08/28 09:56:15;;;;;;;;;;;20.30;94.40;;;;;;5053259;28;19912;-52
2022/08/28 09:58:46;;;;;;;;;;;20.50;93.90;;;;;;5052843;28;20238;-52
2022/08/28 10:01:30;;;;;;;;;;;20.60;93.90;;;;;;5053339;28;19917;-48
2022/08/28 10:04:04;;;;;;;;;;;20.60;94.10;;;;;;5052728;28;19958;-53
2022/08/28 10:06:32;;;;;;;;;;;20.50;93.90;;;;;;5053216;28;19917;-54
2022/08/28 10:09:04;;;;;;;;;;;20.50;94.20;;;;;;5053058;28;20324;-53
2022/08/28 10:11:42;;;;;;;;;;;20.70;93.80;;;;;;5052191;28;19919;-52
2022/08/28 10:14:20;;;;;;;;;;;20.80;93.60;;;;;;5052768;28;19952;-53
2022/08/28 10:16:52;;;;;;;;;;;20.90;93.70;;;;;;5037993;28;19913;-55
2022/08/28 10:19:36;;;;;;;;;;;20.80;93.70;;;;;;5052379;28;20380;-53
2022/08/28 10:22:09;;;;;;;;;;;20.90;93.40;;;;;;5052515;28;19912;-52
2022/08/28 10:24:38;;;;;;;;;;;20.90;93.50;;;;;;5052335;28;19913;-56
2022/08/28 10:27:03;;;;;;;;;;;20.90;93.10;;;;;;5051628;28;20019;-56
2022/08/28 10:29:50;;;;;;;;;;;20.70;93.20;;;;;;5052241;28;19989;-54
2022/08/28 10:32:15;;;;;;;;;;;21.00;93.10;;;;;;5052147;28;20351;-57
2022/08/28 10:34:45;;;;;;;;;;;21.20;92.80;;;;;;5052082;28;19917;-54
2022/08/28 10:37:11;;;;;;;;;;;21.20;92.50;;;;;;5036936;28;19917;-57
2022/08/28 10:39:44;;;;;;;;;;;21.20;92.10;;;;;;5051910;28;19916;-58
2022/08/28 10:42:10;;;;;;;;;;;21.10;92.20;;;;;;5051725;28;19978;-56
2022/08/28 10:44:35;;;;;;;;;;;21.10;92.60;;;;;;5052397;28;19921;-56
2022/08/28 10:47:02;;;;;;;;;;;21.10;92.10;;;;;;5050851;28;19917;-58
2022/08/28 10:49:30;;;;;;;;;;;21.20;92.10;;;;;;5051922;28;19913;-55
2022/08/28 10:52:07;;;;;;;;;;;21.30;91.80;;;;;;5051183;28;19924;-57
2022/08/28 10:54:51;;;;;;;;;;;21.40;91.60;;;;;;5051006;28;19912;-54
2022/08/28 10:57:37;;;;;;;;;;;21.60;91.20;;;;;;5046263;28;19953;-55
2022/08/28 11:00:07;;;;;;;;;;;21.70;91.10;;;;;;5030960;28;19909;-55
2022/08/28 11:02:33;;;;;;;;;;;21.70;91.10;;;;;;5046096;28;19913;-51
2022/08/28 11:04:58;;;;;;;;;;;21.70;90.60;;;;;;5055179;28;19913;-54
2022/08/28 11:07:27;;;;;;;;;;;21.70;90.60;;;;;;5054614;28;19924;-54
2022/08/28 11:09:52;;;;;;;;;;;21.60;90.80;;;;;;5053604;28;19913;-54
2022/08/28 11:12:22;;;;;;;;;;;21.60;91.00;;;;;;5050316;28;19919;-52
2022/08/28 11:14:49;;;;;;;;;;;21.70;91.10;;;;;;5052321;28;19913;-58
2022/08/28 11:17:21;;;;;;;;;;;21.80;90.60;;;;;;5054578;28;19913;-57
2022/08/28 11:20:06;;;;;;;;;;;21.70;90.60;;;;;;5056096;28;19935;-53
2022/08/28 11:22:38;;;;;;;;;;;21.70;90.60;;;;;;5053192;28;20379;-53
2022/08/28 11:25:10;;;;;;;;;;;21.60;90.60;;;;;;5052190;28;19921;-58
2022/08/28 11:27:36;;;;;;;;;;;21.50;90.90;;;;;;5051937;28;19919;-56
2022/08/28 11:30:02;;;;;;;;;;;21.70;90.70;;;;;;5055802;28;19963;-55
2022/08/28 11:32:30;;;;;;;;;;;21.80;90.40;;;;;;5054555;28;19917;-56
2022/08/28 11:34:57;;;;;;;;;;;21.80;90.50;;;;;;5056610;28;19987;-52
2022/08/28 11:37:43;;;;;;;;;;;22.00;90.30;;;;;;5054932;28;19940;-56
2022/08/28 11:40:16;;;;;;;;;;;22.00;90.60;;;;;;5056180;28;19915;-53
2022/08/28 11:42:42;;;;;;;;;;;22.10;90.10;;;;;;5055322;28;19974;-57
2022/08/28 11:45:16;;;;;;;;;;;22.10;90.10;;;;;;5054957;28;20008;-54
2022/08/28 11:47:44;;;;;;;;;;;22.10;90.30;;;;;;5055136;28;20686;-56
2022/08/28 11:50:29;;;;;;;;;;;22.30;88.60;;;;;;5055834;28;19943;-53
2022/08/28 11:53:34;;;;;;;;;;;22.30;88.90;;;;;;5054624;28;19913;-54
2022/08/28 11:56:11;;;;;;;;;;;22.50;87.90;;;;;;4977940;28;19910;-53
2022/08/28 11:58:53;;;;;;;;;;;22.60;86.20;;;;;;4994236;28;19945;-53
2022/08/28 12:01:26;;;;;;;;;;;22.50;87.00;;;;;;5033945;28;19920;-56
2022/08/28 12:04:06;;;;;;;;;;;22.60;87.60;;;;;;5056681;28;19912;-54
2022/08/28 12:06:43;;;;;;;;;;;22.60;87.10;;;;;;5055961;28;20023;-53
2022/08/28 12:09:29;;;;;;;;;;;22.60;86.30;;;;;;5057181;28;19912;-56
2022/08/28 12:11:57;;;;;;;;;;;22.60;86.20;;;;;;5053817;28;19912;-57
2022/08/28 12:14:26;;;;;;;;;;;22.50;86.20;;;;;;5056849;28;19908;-56
2022/08/28 12:16:58;;;;;;;;;;;22.50;85.70;;;;;;5056596;28;19915;-51
2022/08/28 12:19:43;;;;;;;;;;;22.70;85.80;;;;;;5057244;28;19909;-55
2022/08/28 12:22:10;;;;;;;;;;;22.70;84.70;;;;;;5054569;28;19916;-55
2022/08/28 12:24:43;;;;;;;;;;;22.80;85.10;;;;;;5056394;28;19908;-51
2022/08/28 12:27:09;;;;;;;;;;;22.70;84.50;;;;;;5056229;28;19971;-50
2022/08/28 12:29:44;;;;;;;;;;;22.90;84.70;;;;;;5054574;28;19962;-52
2022/08/28 12:32:17;;;;;;;;;;;23.00;83.40;;;;;;5056317;28;19909;-55
2022/08/28 12:34:45;;;;;;;;;;;22.90;84.30;;;;;;5055311;28;19916;-51
2022/08/28 12:37:29;;;;;;;;;;;23.10;83.60;;;;;;5055720;28;19909;-58
2022/08/28 12:39:56;;;;;;;;;;;23.00;84.20;;;;;;5056419;28;19916;-51
2022/08/28 12:42:25;;;;;;;;;;;23.10;83.20;;;;;;5051652;28;19924;-57
2022/08/28 12:44:50;;;;;;;;;;;23.00;83.60;;;;;;5055268;28;20063;-54
2022/08/28 12:47:19;;;;;;;;;;;23.30;82.90;;;;;;5056340;28;19913;-53
2022/08/28 12:49:45;;;;;;;;;;;23.30;82.50;;;;;;5055476;28;20416;-54
2022/08/28 12:52:14;;;;;;;;;;;23.20;81.20;;;;;;5055454;28;19948;-56
2022/08/28 12:54:40;;;;;;;;;;;23.20;82.10;;;;;;5054070;28;20015;-56
2022/08/28 12:57:07;;;;;;;;;;;23.30;81.90;;;;;;5055228;28;19955;-52
2022/08/28 12:59:32;;;;;;;;;;;23.40;81.60;;;;;;5055348;28;20383;-58
2022/08/28 13:02:02;;;;;;;;;;;23.70;81.00;;;;;;5055526;28;19956;-53
2022/08/28 13:04:32;;;;;;;;;;;23.70;81.10;;;;;;5055873;28;19917;-52
2022/08/28 13:07:01;;;;;;;;;;;23.60;80.40;;;;;;5055515;28;19951;-52
2022/08/28 13:09:27;;;;;;;;;;;23.70;80.40;;;;;;5054671;28;20593;-56
2022/08/28 13:11:53;;;;;;;;;;;23.70;81.00;;;;;;5054305;28;19913;-54
2022/08/28 13:14:41;;;;;;;;;;;24.00;80.60;;;;;;5055374;28;19962;-56
2022/08/28 13:17:08;;;;;;;;;;;23.70;80.50;;;;;;5055827;28;19909;-55
2022/08/28 13:19:34;;;;;;;;;;;23.50;80.30;;;;;;5054958;28;19954;-57
2022/08/28 13:22:02;;;;;;;;;;;23.60;80.90;;;;;;5054300;28;19913;-55
2022/08/28 13:24:27;;;;;;;;;;;23.70;81.00;;;;;;5053903;28;19916;-57
2022/08/28 13:27:05;;;;;;;;;;;23.80;80.90;;;;;;5054836;28;19909;-55
2022/08/28 13:29:31;;;;;;;;;;;23.70;80.40;;;;;;5054752;28;19919;-52
2022/08/28 13:32:01;;;;;;;;;;;23.80;80.30;;;;;;5053764;28;19909;-55
2022/08/28 13:34:28;;;;;;;;;;;23.70;80.50;;;;;;5055080;28;19909;-56
2022/08/28 13:36:58;;;;;;;;;;;23.70;79.10;;;;;;5054033;28;20376;-58
2022/08/28 13:39:25;;;;;;;;;;;23.80;79.00;;;;;;5055464;28;20011;-57
2022/08/28 13:41:54;;;;;;;;;;;23.70;79.00;;;;;;5053438;28;20378;-59
2022/08/28 13:44:28;;;;;;;;;;;23.80;79.10;;;;;;5053712;28;19966;-53
2022/08/28 13:46:55;;;;;;;;;;;24.00;78.60;;;;;;5053574;28;19916;-57
2022/08/28 13:49:20;;;;;;;;;;;24.00;77.40;;;;;;5054422;28;19912;-53
2022/08/28 13:51:46;;;;;;;;;;;24.10;77.00;;;;;;5053050;28;20016;-54
2022/08/28 13:54:11;;;;;;;;;;;24.20;76.10;;;;;;5054038;28;19909;-56
2022/08/28 13:56:37;;;;;;;;;;;24.60;76.40;;;;;;5054060;28;19913;-53
2022/08/28 13:59:03;;;;;;;;;;;24.70;75.80;;;;;;5054181;28;20280;-58
2022/08/28 14:04:12;;;;;;;;;;;24.20;76.50;;;;;;5053377;28;19913;-55
2022/08/28 14:06:40;;;;;;;;;;;24.30;75.90;;;;;;5053049;28;19909;-58
2022/08/28 14:09:05;;;;;;;;;;;24.50;75.60;;;;;;5053341;28;19909;-56
2022/08/28 14:11:32;;;;;;;;;;;24.40;75.10;;;;;;5053360;28;19912;-55
2022/08/28 14:13:57;;;;;;;;;;;24.80;74.50;;;;;;5053464;28;19913;-53
2022/08/28 14:16:24;;;;;;;;;;;25.20;73.90;;;;;;5054258;28;19928;-55
2022/08/28 14:18:51;;;;;;;;;;;25.00;73.60;;;;;;5057057;28;19909;-50
2022/08/28 14:21:17;;;;;;;;;;;24.60;74.50;;;;;;5055453;28;19913;-53
2022/08/28 14:23:42;;;;;;;;;;;24.90;74.10;;;;;;5053463;28;19989;-56
2022/08/28 14:26:08;;;;;;;;;;;25.20;73.20;;;;;;5053507;28;19916;-54
2022/08/28 14:28:34;;;;;;;;;;;25.20;73.00;;;;;;5053731;28;20000;-54
2022/08/28 14:30:59;;;;;;;;;;;25.50;73.00;;;;;;5052610;28;19920;-54
2022/08/28 14:33:25;;;;;;;;;;;25.70;73.10;;;;;;5053368;28;19908;-56
2022/08/28 14:35:50;;;;;;;;;;;25.60;72.60;;;;;;5053593;28;19913;-55
2022/08/28 14:38:16;;;;;;;;;;;25.60;73.00;;;;;;5052968;28;19949;-53
2022/08/28 14:40:42;;;;;;;;;;;25.60;73.10;;;;;;5053188;28;19978;-55